createdAt,value
2019-03-01T00:00:58.525Z,10.10
2019-03-01T00:03:28.041Z,10.03
2019-03-01T00:06:05.971Z,12.37
2019-03-01T00:08:54.321Z,10.32
2019-03-01T00:11:44.373Z,10.60
2019-03-01T00:14:16.013Z,9.45
2019-03-01T00:16:50.564Z,9.68
2019-03-01T00:19:55.288Z,9.78
2019-03-01T00:22:45.023Z,9.60
2019-03-01T00:25:31.671Z,9.23
2019-03-01T00:28:18.583Z,10.05
2019-03-01T00:31:10.485Z,8.25
2019-03-01T00:33:57.340Z,9.15
2019-03-01T00:36:40.614Z,10.05
2019-03-01T00:39:39.601Z,9.20
2019-03-01T00:42:32.020Z,9.30
2019-03-01T00:45:00.675Z,8.13
2019-03-01T00:47:29.110Z,9.25
2019-03-01T00:49:57.527Z,9.40
2019-03-01T00:52:26.050Z,10.08
2019-03-01T00:54:54.825Z,8.90
2019-03-01T00:57:23.337Z,9.40
2019-03-01T00:59:51.781Z,8.93
2019-03-01T01:02:20.580Z,8.33
2019-03-01T01:04:49.294Z,10.13
2019-03-01T01:07:17.926Z,9.50
2019-03-01T01:09:59.748Z,8.88
2019-03-01T01:12:27.990Z,9.53
2019-03-01T01:14:56.470Z,10.08
2019-03-01T01:17:25.294Z,9.30
2019-03-01T01:19:53.891Z,10.43
2019-03-01T01:22:22.371Z,10.88
2019-03-01T01:24:50.995Z,10.23
2019-03-01T01:27:21.237Z,10.98
2019-03-01T01:29:49.711Z,9.80
2019-03-01T01:32:18.520Z,11.10
2019-03-01T01:34:46.966Z,10.65
2019-03-01T01:37:15.411Z,11.05
2019-03-01T01:39:44.292Z,10.98
2019-03-01T01:42:12.747Z,11.12
2019-03-01T01:44:41.155Z,10.70
2019-03-01T01:47:10.042Z,11.68
2019-03-01T01:49:38.961Z,11.43
2019-03-01T01:52:09.154Z,11.03
2019-03-01T01:54:47.747Z,11.05
2019-03-01T01:57:16.221Z,11.43
2019-03-01T01:59:44.754Z,11.03
2019-03-01T02:02:13.383Z,10.18
2019-03-01T02:04:41.909Z,9.88
2019-03-01T02:07:11.590Z,11.15
2019-03-01T02:09:46.373Z,9.50
2019-03-01T02:12:14.871Z,9.88
2019-03-01T02:14:43.305Z,10.80
2019-03-01T02:17:11.729Z,11.88
2019-03-01T02:19:40.552Z,10.65
2019-03-01T02:22:09.334Z,12.13
2019-03-01T02:24:37.836Z,12.68
2019-03-01T02:27:21.115Z,11.65
2019-03-01T02:29:49.622Z,11.28
2019-03-01T02:32:21.120Z,11.35
2019-03-01T02:34:49.804Z,12.70
2019-03-01T02:37:18.529Z,11.12
2019-03-01T02:39:46.994Z,11.75
2019-03-01T02:42:15.708Z,12.45
2019-03-01T02:44:44.129Z,12.40
2019-03-01T02:47:12.562Z,12.85
2019-03-01T02:49:41.226Z,12.73
2019-03-01T02:52:09.646Z,11.97
2019-03-01T02:54:38.072Z,12.68
2019-03-01T02:57:06.721Z,11.97
2019-03-01T02:59:35.211Z,12.55
2019-03-01T03:02:04.059Z,13.03
2019-03-01T03:04:32.798Z,13.93
2019-03-01T03:07:11.788Z,14.55
2019-03-01T03:09:40.523Z,13.70
2019-03-01T03:12:09.031Z,15.13
2019-03-01T03:14:37.461Z,13.53
2019-03-01T03:17:06.284Z,13.72
2019-03-01T03:19:34.793Z,13.35
2019-03-01T03:22:03.238Z,15.43
2019-03-01T03:24:31.893Z,15.50
2019-03-01T03:27:00.313Z,14.53
2019-03-01T03:29:30.020Z,16.85
2019-03-01T03:31:58.834Z,16.65
2019-03-01T03:34:27.319Z,17.17
2019-03-01T03:36:55.802Z,16.30
2019-03-01T03:39:24.492Z,17.67
2019-03-01T03:41:53.004Z,17.23
2019-03-01T03:44:21.537Z,16.48
2019-03-01T03:46:50.342Z,17.25
2019-03-01T03:49:18.751Z,16.57
2019-03-01T03:51:47.199Z,16.67
2019-03-01T03:54:15.847Z,15.35
2019-03-01T03:56:44.421Z,16.07
2019-03-01T03:59:12.852Z,16.82
2019-03-01T04:01:41.499Z,17.45
2019-03-01T04:04:10.024Z,15.68
2019-03-01T04:06:38.537Z,15.60
2019-03-01T04:09:07.251Z,17.00
2019-03-01T04:11:35.683Z,15.30
2019-03-01T04:14:04.563Z,15.95
2019-03-01T04:16:33.148Z,31.17
2019-03-01T04:19:01.612Z,24.77
2019-03-01T04:21:30.114Z,15.68
2019-03-01T04:23:58.880Z,15.18
2019-03-01T04:26:27.310Z,14.85
2019-03-01T04:28:55.769Z,14.95
2019-03-01T04:31:24.325Z,26.15
2019-03-01T04:33:52.779Z,31.95
2019-03-01T04:36:21.257Z,25.85
2019-03-01T04:38:49.955Z,16.60
2019-03-01T04:41:18.371Z,15.95
2019-03-01T04:43:46.967Z,15.48
2019-03-01T04:46:20.661Z,13.90
2019-03-01T04:48:49.110Z,14.23
2019-03-01T04:51:17.557Z,14.43
2019-03-01T04:53:46.262Z,15.28
2019-03-01T04:56:14.759Z,14.35
2019-03-01T04:58:43.195Z,15.00
2019-03-01T05:01:12.111Z,14.43
2019-03-01T05:03:40.638Z,15.95
2019-03-01T05:06:09.071Z,14.85
2019-03-01T05:08:37.704Z,14.87
2019-03-01T05:11:06.188Z,15.45
2019-03-01T05:13:34.658Z,15.85
2019-03-01T05:16:03.278Z,14.07
2019-03-01T05:18:31.782Z,15.13
2019-03-01T05:21:00.246Z,15.08
2019-03-01T05:23:29.013Z,14.90
2019-03-01T05:25:57.486Z,13.93
2019-03-01T05:28:25.940Z,14.28
2019-03-01T05:30:54.615Z,16.42
2019-03-01T05:33:23.109Z,13.93
2019-03-01T05:35:51.575Z,15.60
2019-03-01T05:38:21.990Z,15.35
2019-03-01T05:40:50.826Z,14.20
2019-03-01T05:43:19.458Z,14.73
2019-03-01T05:45:47.893Z,16.00
2019-03-01T05:48:16.627Z,15.13
2019-03-01T05:50:45.142Z,14.73
2019-03-01T05:53:13.611Z,15.40
2019-03-01T05:55:42.176Z,16.40
2019-03-01T05:58:31.596Z,15.83
2019-03-01T06:01:21.287Z,15.43
2019-03-01T06:04:04.631Z,16.87
2019-03-01T06:06:55.951Z,15.68
2019-03-01T06:09:27.470Z,19.40
2019-03-01T06:12:13.944Z,17.85
2019-03-01T06:14:51.296Z,18.30
2019-03-01T06:17:38.023Z,20.75
2019-03-01T06:20:12.289Z,55.28
2019-03-01T06:22:49.185Z,28.23
2019-03-01T06:25:26.615Z,21.52
2019-03-01T06:28:10.419Z,38.83
2019-03-01T06:31:13.771Z,30.27
2019-03-01T06:33:51.450Z,25.82
2019-03-01T06:36:37.698Z,23.38
2019-03-01T06:39:17.377Z,24.50
2019-03-01T06:41:54.696Z,24.35
2019-03-01T06:44:35.221Z,26.68
2019-03-01T06:47:26.346Z,26.10
2019-03-01T06:50:02.693Z,28.10
2019-03-01T06:52:31.146Z,28.73
2019-03-01T06:54:59.606Z,31.40
2019-03-01T06:57:28.202Z,34.13
2019-03-01T06:59:56.639Z,33.63
2019-03-01T07:02:30.217Z,37.90
2019-03-01T07:04:58.714Z,40.60
2019-03-01T07:07:27.238Z,41.30
2019-03-01T07:09:55.879Z,47.27
2019-03-01T07:12:24.302Z,58.58
2019-03-01T07:14:52.775Z,49.27
2019-03-01T07:17:21.554Z,50.60
2019-03-01T07:19:49.970Z,48.68
2019-03-01T07:22:18.427Z,48.60
2019-03-01T07:24:47.009Z,50.15
2019-03-01T07:27:15.432Z,50.65
2019-03-01T07:29:43.872Z,50.23
2019-03-01T07:32:12.608Z,50.58
2019-03-01T07:34:41.055Z,52.88
2019-03-01T07:37:09.487Z,54.65
2019-03-01T07:39:38.268Z,54.88
2019-03-01T07:42:06.684Z,60.52
2019-03-01T07:44:35.143Z,61.10
2019-03-01T07:47:04.030Z,56.58
2019-03-01T07:49:32.502Z,61.60
2019-03-01T07:52:01.646Z,63.52
2019-03-01T07:54:31.101Z,62.70
2019-03-01T07:56:59.888Z,66.15
2019-03-01T07:59:28.318Z,69.97
2019-03-01T08:02:00.803Z,70.42
2019-03-01T08:04:29.550Z,71.62
2019-03-01T08:06:58.118Z,73.80
2019-03-01T08:09:26.543Z,73.05
2019-03-01T08:11:54.996Z,75.17
2019-03-01T08:14:24.585Z,74.85
2019-03-01T08:16:56.138Z,75.55
2019-03-01T08:19:24.273Z,78.33
2019-03-01T08:21:52.760Z,77.78
2019-03-01T08:24:21.189Z,80.50
2019-03-01T08:26:49.979Z,78.57
2019-03-01T08:29:18.410Z,77.17
2019-03-01T08:31:46.858Z,72.97
2019-03-01T08:34:17.801Z,69.85
2019-03-01T08:36:46.398Z,73.52
2019-03-01T08:39:14.842Z,74.67
2019-03-01T08:41:43.422Z,76.92
2019-03-01T08:44:11.852Z,75.37
2019-03-01T08:46:42.118Z,70.12
2019-03-01T08:49:11.484Z,72.10
2019-03-01T08:51:40.154Z,66.47
2019-03-01T08:54:09.163Z,70.57
2019-03-01T08:56:42.820Z,66.55
2019-03-01T08:59:14.179Z,74.82
2019-03-01T09:01:41.675Z,73.05
2019-03-01T09:04:17.725Z,72.62
2019-03-01T09:06:44.469Z,65.80
2019-03-01T09:09:13.065Z,62.17
2019-03-01T09:11:44.613Z,59.88
2019-03-01T09:14:11.953Z,58.52
2019-03-01T09:16:41.147Z,55.60
2019-03-01T09:19:09.816Z,64.25
2019-03-01T09:21:39.530Z,55.03
2019-03-01T09:24:08.193Z,65.72
2019-03-01T09:26:36.710Z,56.08
2019-03-01T09:29:05.990Z,54.88
2019-03-01T09:31:34.438Z,50.73
2019-03-01T09:34:05.973Z,52.88
2019-03-01T09:36:36.226Z,54.30
2019-03-01T09:39:08.347Z,54.20
2019-03-01T09:41:40.581Z,49.25
2019-03-01T09:44:08.568Z,51.70
2019-03-01T09:46:37.869Z,50.25
2019-03-01T09:49:06.589Z,44.73
2019-03-01T09:51:35.060Z,46.95
2019-03-01T09:54:06.476Z,44.58
2019-03-01T09:56:34.105Z,44.13
2019-03-01T09:59:02.544Z,44.20
2019-03-01T10:01:31.048Z,44.30
2019-03-01T10:03:59.983Z,45.23
2019-03-01T10:06:37.877Z,44.85
2019-03-01T10:09:00.161Z,44.93
2019-03-01T10:11:28.769Z,47.70
2019-03-01T10:13:57.304Z,42.83
2019-03-01T10:16:25.831Z,187.47
2019-03-01T10:18:54.663Z,53.05
2019-03-01T10:21:23.229Z,42.90
2019-03-01T10:23:51.724Z,41.80
2019-03-01T10:26:20.338Z,44.03
2019-03-01T10:28:48.845Z,44.00
2019-03-01T10:31:17.401Z,42.45
2019-03-01T10:33:46.006Z,42.27
2019-03-01T10:36:14.448Z,43.15
2019-03-01T10:38:42.940Z,39.20
2019-03-01T10:41:11.590Z,45.52
2019-03-01T10:43:40.085Z,45.00
2019-03-01T10:46:08.590Z,44.27
2019-03-01T10:48:37.139Z,46.45
2019-03-01T10:51:05.678Z,46.80
2019-03-01T10:53:34.166Z,47.62
2019-03-01T10:56:02.969Z,46.68
2019-03-01T10:58:31.497Z,45.95
2019-03-01T11:01:00.076Z,46.37
2019-03-01T11:03:28.810Z,44.30
2019-03-01T11:05:57.248Z,45.95
2019-03-01T11:08:25.695Z,44.18
2019-03-01T11:10:54.660Z,44.05
2019-03-01T11:13:23.076Z,43.10
2019-03-01T11:15:51.515Z,40.45
2019-03-01T11:18:20.210Z,41.53
2019-03-01T11:20:48.699Z,40.63
2019-03-01T11:23:17.182Z,37.38
2019-03-01T11:25:45.752Z,37.33
2019-03-01T11:28:14.204Z,38.53
2019-03-01T11:30:42.626Z,36.93
2019-03-01T11:33:11.410Z,34.03
2019-03-01T11:35:40.005Z,31.55
2019-03-01T11:38:08.514Z,35.52
2019-03-01T11:40:40.455Z,32.30
2019-03-01T11:45:36.753Z,29.05
2019-03-01T11:48:05.955Z,30.40
2019-03-01T11:50:34.454Z,28.90
2019-03-01T11:53:02.942Z,28.85
2019-03-01T11:55:31.742Z,28.45
2019-03-01T11:58:00.231Z,30.62
2019-03-01T12:00:29.700Z,27.37
2019-03-01T12:02:58.691Z,26.48
2019-03-01T12:05:27.322Z,48.28
2019-03-01T12:07:55.845Z,29.40
2019-03-01T12:10:31.486Z,29.77
2019-03-01T12:13:00.087Z,27.52
2019-03-01T12:15:28.519Z,26.75
2019-03-01T12:17:57.278Z,25.75
2019-03-01T12:20:28.006Z,26.42
2019-03-01T12:22:56.429Z,26.12
2019-03-01T12:25:25.125Z,27.17
2019-03-01T12:27:53.568Z,25.60
2019-03-01T12:30:24.654Z,25.88
2019-03-01T12:32:53.666Z,26.20
2019-03-01T12:35:22.195Z,22.52
2019-03-01T12:37:50.746Z,23.27
2019-03-01T12:40:32.526Z,25.97
2019-03-01T12:43:01.248Z,27.52
2019-03-01T12:45:29.647Z,25.27
2019-03-01T12:47:58.303Z,28.52
2019-03-01T12:50:26.830Z,25.45
2019-03-01T12:52:55.282Z,32.53
2019-03-01T12:55:26.150Z,34.23
2019-03-01T12:57:54.586Z,31.77
2019-03-01T13:00:34.011Z,33.05
2019-03-01T13:03:05.211Z,21.15
2019-03-01T13:05:33.241Z,17.95
2019-03-01T13:08:02.913Z,18.32
2019-03-01T13:10:36.753Z,22.98
2019-03-01T13:13:08.536Z,23.98
2019-03-01T13:15:37.333Z,20.52
2019-03-01T13:18:05.973Z,19.60
2019-03-01T13:20:37.275Z,20.88
2019-03-01T13:23:06.190Z,17.23
2019-03-01T13:25:34.996Z,18.62
2019-03-01T13:28:03.558Z,19.45
2019-03-01T13:30:32.735Z,19.30
2019-03-01T13:33:03.437Z,16.80
2019-03-01T13:35:32.277Z,18.37
2019-03-01T13:38:00.842Z,24.67
2019-03-01T13:40:29.370Z,22.42
2019-03-01T13:42:57.994Z,22.85
2019-03-01T13:45:26.634Z,23.73
2019-03-01T13:47:56.088Z,26.95
2019-03-01T13:50:24.862Z,27.42
2019-03-01T13:52:53.386Z,24.50
2019-03-01T13:55:23.453Z,20.65
2019-03-01T13:57:52.443Z,18.50
2019-03-01T14:00:22.684Z,21.05
2019-03-01T14:02:51.550Z,18.17
2019-03-01T14:05:22.408Z,18.98
2019-03-01T14:07:55.150Z,17.17
2019-03-01T14:10:31.250Z,20.92
2019-03-01T14:12:59.753Z,18.65
2019-03-01T14:15:29.892Z,25.43
2019-03-01T14:18:01.183Z,31.68
2019-03-01T14:20:29.107Z,33.75
2019-03-01T14:22:57.535Z,31.05
2019-03-01T14:25:29.002Z,28.25
2019-03-01T14:27:58.567Z,23.70
2019-03-01T14:30:30.210Z,23.32
2019-03-01T14:32:58.939Z,23.80
2019-03-01T14:35:27.569Z,19.37
2019-03-01T14:37:55.995Z,19.05
2019-03-01T14:40:25.142Z,17.90
2019-03-01T14:42:53.554Z,16.97
2019-03-01T14:45:26.322Z,17.32
2019-03-01T14:47:56.671Z,18.45
2019-03-01T14:50:30.126Z,18.52
2019-03-01T14:52:58.913Z,23.57
2019-03-01T14:55:51.932Z,20.62
2019-03-01T14:58:23.996Z,17.42
2019-03-01T15:00:55.476Z,18.55
2019-03-01T15:03:35.796Z,25.43
2019-03-01T15:06:05.056Z,20.75
2019-03-01T15:08:33.618Z,20.75
2019-03-01T15:11:07.947Z,18.70
2019-03-01T15:13:35.964Z,18.65
2019-03-01T15:16:06.012Z,17.82
2019-03-01T15:18:35.698Z,18.52
2019-03-01T15:21:05.495Z,18.48
2019-03-01T15:23:34.779Z,16.97
2019-03-01T15:26:04.953Z,15.80
2019-03-01T15:28:35.731Z,14.95
2019-03-01T15:31:04.576Z,16.00
2019-03-01T15:33:33.379Z,13.93
2019-03-01T15:36:01.810Z,15.95
2019-03-01T15:38:30.239Z,14.33
2019-03-01T15:40:58.891Z,14.87
2019-03-01T15:43:30.069Z,15.43
2019-03-01T15:45:59.074Z,15.63
2019-03-01T15:48:28.282Z,16.37
2019-03-01T15:50:59.089Z,15.93
2019-03-01T15:53:28.436Z,14.63
2019-03-01T15:55:57.006Z,15.40
2019-03-01T15:58:25.526Z,14.85
2019-03-01T16:00:54.084Z,16.30
2019-03-01T16:03:25.880Z,19.77
2019-03-01T16:05:54.953Z,20.65
2019-03-01T16:08:23.454Z,17.37
2019-03-01T16:10:51.966Z,14.95
2019-03-01T16:13:22.079Z,14.55
2019-03-01T16:15:50.634Z,18.37
2019-03-01T16:18:19.859Z,15.93
2019-03-01T16:20:48.283Z,15.53
2019-03-01T16:23:16.731Z,15.90
2019-03-01T16:25:45.766Z,15.88
2019-03-01T16:28:14.755Z,16.15
2019-03-01T16:30:43.389Z,16.00
2019-03-01T16:33:11.817Z,16.45
2019-03-01T16:35:40.671Z,15.30
2019-03-01T16:38:09.109Z,15.53
2019-03-01T16:40:37.523Z,22.25
2019-03-01T16:43:06.096Z,29.05
2019-03-01T16:45:36.231Z,14.20
2019-03-01T16:48:04.830Z,15.53
2019-03-01T16:50:33.471Z,15.30
2019-03-01T16:53:04.695Z,14.60
2019-03-01T16:55:32.105Z,14.75
2019-03-01T16:58:06.953Z,15.03
2019-03-01T17:00:31.184Z,15.35
2019-03-01T17:03:16.598Z,16.17
2019-03-01T17:05:41.611Z,32.13
2019-03-01T17:08:10.229Z,21.93
2019-03-01T17:10:39.283Z,14.15
2019-03-01T17:13:08.091Z,16.95
2019-03-01T17:15:36.549Z,16.25
2019-03-01T17:18:05.340Z,16.75
2019-03-01T17:20:37.379Z,16.02
2019-03-01T17:23:04.079Z,14.87
2019-03-01T17:25:32.849Z,14.83
2019-03-01T17:28:01.328Z,15.05
2019-03-01T17:30:29.925Z,14.23
2019-03-01T17:32:58.828Z,14.25
2019-03-01T17:35:27.306Z,13.90
2019-03-01T17:37:55.775Z,12.25
2019-03-01T17:40:24.385Z,14.55
2019-03-01T17:42:53.131Z,13.38
2019-03-01T17:45:25.353Z,11.20
2019-03-01T17:47:55.313Z,10.20
2019-03-01T17:50:23.994Z,7.87
2019-03-01T17:52:52.573Z,8.40
2019-03-01T17:55:30.002Z,8.20
2019-03-01T17:57:58.591Z,8.00
2019-03-01T18:00:42.166Z,7.60
2019-03-01T18:03:11.514Z,10.90
2019-03-01T18:05:40.660Z,10.80
2019-03-01T18:08:10.130Z,13.98
2019-03-01T18:10:39.524Z,9.00
2019-03-01T18:13:08.077Z,7.97
2019-03-01T18:15:36.520Z,9.40
2019-03-01T18:18:08.806Z,8.55
2019-03-01T18:20:37.597Z,9.45
2019-03-01T18:23:07.014Z,8.90
2019-03-01T18:25:35.432Z,8.65
2019-03-01T18:28:03.945Z,9.93
2019-03-01T18:30:37.703Z,9.48
2019-03-01T18:33:06.188Z,9.75
2019-03-01T18:35:37.317Z,10.35
2019-03-01T18:38:06.566Z,9.48
2019-03-01T18:40:35.043Z,9.88
2019-03-01T18:43:03.473Z,10.72
2019-03-01T18:45:32.219Z,10.82
2019-03-01T18:48:00.633Z,11.70
2019-03-01T18:50:37.343Z,10.43
2019-03-01T18:53:05.844Z,10.03
2019-03-01T18:55:34.293Z,10.55
2019-03-01T18:58:03.120Z,11.22
2019-03-01T19:00:36.940Z,10.98
2019-03-01T19:03:07.096Z,29.67
2019-03-01T19:05:36.612Z,12.28
2019-03-01T19:08:06.271Z,11.10
2019-03-01T19:10:36.124Z,12.15
2019-03-01T19:13:04.705Z,13.43
2019-03-01T19:15:33.468Z,12.20
2019-03-01T19:18:02.534Z,10.45
2019-03-01T19:20:41.559Z,11.28
2019-03-01T19:23:11.541Z,58.33
2019-03-01T19:25:40.082Z,27.48
2019-03-01T19:28:09.068Z,18.20
2019-03-01T19:30:38.081Z,14.73
2019-03-01T19:33:06.840Z,14.13
2019-03-01T19:35:35.264Z,10.98
2019-03-01T19:38:04.171Z,11.75
2019-03-01T19:40:32.627Z,21.77
2019-03-01T19:43:01.070Z,12.75
2019-03-01T19:45:30.061Z,11.55
2019-03-01T19:48:03.010Z,11.55
2019-03-01T19:50:29.890Z,12.10
2019-03-01T19:52:58.906Z,11.88
2019-03-01T19:55:27.557Z,10.28
2019-03-01T19:57:56.378Z,9.70
2019-03-01T20:00:29.368Z,10.15
2019-03-01T20:02:57.963Z,10.78
2019-03-01T20:05:33.148Z,10.28
2019-03-01T20:08:02.075Z,9.23
2019-03-01T20:10:30.576Z,8.90
2019-03-01T20:13:00.580Z,8.50
2019-03-01T20:15:30.263Z,8.45
2019-03-01T20:17:59.260Z,8.53
2019-03-01T20:20:29.955Z,8.15
2019-03-01T20:22:59.328Z,8.00
2019-03-01T20:25:27.791Z,8.13
2019-03-01T20:27:56.281Z,6.92
2019-03-01T20:30:30.311Z,14.95
2019-03-01T20:33:03.680Z,41.33
2019-03-01T20:35:32.187Z,8.68
2019-03-01T20:38:04.337Z,7.35
2019-03-01T20:40:30.926Z,7.72
2019-03-01T20:43:06.273Z,6.95
2019-03-01T20:45:35.120Z,6.85
2019-03-01T20:48:03.692Z,6.87
2019-03-01T20:50:32.143Z,6.70
2019-03-01T20:53:00.715Z,6.45
2019-03-01T20:55:29.135Z,6.62
2019-03-01T20:57:59.708Z,8.45
2019-03-01T21:00:29.809Z,18.27
2019-03-01T21:02:58.749Z,14.03
2019-03-01T21:05:30.230Z,7.05
2019-03-01T21:07:57.585Z,7.85
2019-03-01T21:10:30.308Z,6.72
2019-03-01T21:12:58.743Z,6.83
2019-03-01T21:15:27.343Z,7.25
2019-03-01T21:17:56.939Z,7.42
2019-03-01T21:20:26.387Z,13.00
2019-03-01T21:22:54.989Z,10.93
2019-03-01T21:25:26.909Z,10.18
2019-03-01T21:30:32.409Z,6.33
2019-03-01T21:33:01.001Z,7.45
2019-03-01T21:35:29.429Z,7.65
2019-03-01T21:37:58.052Z,7.92
2019-03-01T21:40:26.461Z,6.72
2019-03-01T21:42:57.246Z,8.08
2019-03-01T21:45:29.698Z,7.03
2019-03-01T21:47:58.151Z,7.70
2019-03-01T21:50:26.675Z,8.55
2019-03-01T21:52:55.773Z,8.43
2019-03-01T21:55:28.907Z,7.97
2019-03-01T21:58:09.526Z,8.08
2019-03-01T22:00:37.954Z,9.50
2019-03-01T22:03:06.402Z,30.43
2019-03-01T22:05:36.074Z,54.75
2019-03-01T22:08:04.601Z,13.50
2019-03-01T22:10:35.620Z,9.78
2019-03-01T22:13:03.687Z,10.30
2019-03-01T22:15:32.100Z,10.30
2019-03-01T22:18:00.516Z,9.80
2019-03-01T22:20:35.606Z,10.38
2019-03-01T22:23:04.174Z,10.10
2019-03-01T22:25:34.587Z,10.20
2019-03-01T22:28:08.212Z,11.88
2019-03-01T22:30:36.631Z,9.88
2019-03-01T22:33:05.034Z,11.83
2019-03-01T22:35:33.697Z,24.95
2019-03-01T22:38:04.620Z,18.80
2019-03-01T22:40:32.267Z,19.77
2019-03-01T22:43:01.026Z,19.85
2019-03-01T22:45:29.447Z,18.48
2019-03-01T22:48:01.511Z,18.67
2019-03-01T22:50:30.362Z,19.52
2019-03-01T22:53:03.128Z,16.90
2019-03-01T22:55:33.529Z,15.30
2019-03-01T22:58:01.747Z,14.70
2019-03-01T23:00:54.453Z,14.75
2019-03-01T23:03:25.094Z,13.83
2019-03-01T23:05:53.793Z,14.73
2019-03-01T23:08:24.186Z,15.23
2019-03-01T23:10:53.785Z,14.68
2019-03-01T23:13:23.249Z,14.50
2019-03-01T23:15:52.081Z,14.35
2019-03-01T23:18:20.627Z,14.28
2019-03-01T23:20:49.058Z,14.30
2019-03-01T23:23:22.534Z,14.43
2019-03-01T23:25:48.984Z,14.95
2019-03-01T23:28:17.461Z,14.40
2019-03-01T23:30:45.922Z,14.18
2019-03-01T23:33:14.856Z,13.28
2019-03-01T23:35:43.310Z,14.05
2019-03-01T23:38:14.905Z,13.08
2019-03-01T23:40:42.295Z,13.40
2019-03-01T23:43:10.719Z,12.65
2019-03-01T23:45:39.181Z,12.50
2019-03-01T23:48:10.701Z,12.78
2019-03-01T23:50:38.237Z,12.28
2019-03-01T23:53:06.697Z,12.63
2019-03-01T23:55:36.246Z,11.88
2019-03-01T23:58:06.238Z,12.28
